Time;durP1;ratioP1;P1;durP2;ratioP2;P2;SDS_P1;SDS_P2;PMS_P1;PMS_P2;Temp;Humidity;BMP_temperature;BMP_pressure;BME280_temperature;BME280_humidity;BME280_pressure;Samples;Min_cycle;Max_cycle;Signal;HPM_P1;HPM_P2
2022/07/15 00:02:08;;;;;;;3.72;2.20;;;;;;;;;;4962575;28;20042;-86
2022/07/15 00:04:34;;;;;;;5.60;2.50;;;;;;;;;;4966875;28;20541;-83
2022/07/15 00:07:00;;;;;;;5.57;2.47;;;;;;;;;;4961803;28;20039;-83
2022/07/15 00:12:10;;;;;;;6.47;2.20;;;;;;;;;;4966771;28;20081;-83
2022/07/15 00:14:37;;;;;;;7.30;2.20;;;;;;;;;;4966822;28;20069;-84
2022/07/15 00:17:02;;;;;;;4.53;2.33;;;;;;;;;;4955758;28;20491;-83
2022/07/15 00:19:28;;;;;;;5.40;2.17;;;;;;;;;;4977153;28;20521;-84
2022/07/15 00:21:53;;;;;;;4.85;2.28;;;;;;;;;;4982151;28;20549;-84
2022/07/15 00:24:19;;;;;;;7.28;2.20;;;;;;;;;;4967748;28;20110;-83
2022/07/15 00:26:44;;;;;;;5.35;2.47;;;;;;;;;;4967094;28;20034;-83
2022/07/15 00:29:10;;;;;;;3.97;2.35;;;;;;;;;;4975679;28;20419;-83
2022/07/15 00:31:36;;;;;;;3.72;2.10;;;;;;;;;;4963750;28;20442;-83
2022/07/15 00:34:01;;;;;;;6.40;2.20;;;;;;;;;;4977757;28;20034;-83
2022/07/15 00:36:27;;;;;;;4.22;2.30;;;;;;;;;;4965757;28;20106;-83
2022/07/15 00:38:52;;;;;;;5.85;2.38;;;;;;;;;;4965758;28;20340;-84
2022/07/15 00:41:17;;;;;;;7.88;3.05;;;;;;;;;;4966591;28;20607;-84
2022/07/15 00:43:43;;;;;;;3.65;2.20;;;;;;;;;;4967700;28;20528;-84
2022/07/15 00:46:08;;;;;;;3.83;2.40;;;;;;;;;;4968128;28;20136;-84
2022/07/15 00:48:34;;;;;;;6.00;2.47;;;;;;;;;;4966810;28;20031;-84
2022/07/15 00:50:59;;;;;;;4.40;2.20;;;;;;;;;;4969905;28;20045;-84
2022/07/15 00:53:28;;;;;;;3.22;2.10;;;;;;;;;;4962535;28;20651;-84
2022/07/15 00:55:58;;;;;;;5.47;2.60;;;;;;;;;;4982483;28;20058;-84
2022/07/15 00:58:26;;;;;;;5.97;2.20;;;;;;;;;;4983001;28;20047;-85
2022/07/15 01:00:54;;;;;;;3.97;2.55;;;;;;;;;;4993432;28;20033;-84
2022/07/15 01:03:20;;;;;;;3.08;1.88;;;;;;;;;;4989805;28;20066;-84
2022/07/15 01:05:47;;;;;;;5.68;2.08;;;;;;;;;;4968626;28;20159;-83
2022/07/15 01:08:14;;;;;;;6.20;2.33;;;;;;;;;;4985151;28;20046;-84
2022/07/15 01:10:40;;;;;;;5.07;2.38;;;;;;;;;;4969837;28;20398;-84
2022/07/15 01:13:05;;;;;;;5.00;2.30;;;;;;;;;;4969495;28;20100;-84
2022/07/15 01:15:33;;;;;;;5.35;2.47;;;;;;;;;;4983022;28;20414;-84
2022/07/15 01:18:00;;;;;;;4.03;2.17;;;;;;;;;;4968093;28;20121;-84
2022/07/15 01:20:26;;;;;;;4.72;2.10;;;;;;;;;;4968236;28;20426;-83
2022/07/15 01:22:51;;;;;;;8.00;2.13;;;;;;;;;;4968034;28;20035;-84
2022/07/15 01:25:17;;;;;;;5.65;2.35;;;;;;;;;;4966977;28;20080;-84
2022/07/15 01:27:42;;;;;;;6.50;2.38;;;;;;;;;;4967102;28;20026;-84
2022/07/15 01:30:08;;;;;;;4.03;2.30;;;;;;;;;;4971976;28;20030;-84
2022/07/15 01:32:34;;;;;;;4.93;2.58;;;;;;;;;;4966746;28;20134;-84
2022/07/15 01:34:59;;;;;;;5.72;2.47;;;;;;;;;;4983340;28;20200;-84
2022/07/15 01:37:25;;;;;;;8.13;2.75;;;;;;;;;;4966610;28;20137;-84
2022/07/15 01:39:50;;;;;;;4.28;2.30;;;;;;;;;;4965467;28;20585;-85
2022/07/15 01:42:15;;;;;;;4.57;2.58;;;;;;;;;;4961665;28;20015;-84
2022/07/15 01:44:41;;;;;;;8.27;2.65;;;;;;;;;;4962777;28;20467;-84
2022/07/15 01:47:06;;;;;;;6.15;2.38;;;;;;;;;;4968376;28;20043;-84
2022/07/15 01:49:32;;;;;;;5.68;2.30;;;;;;;;;;4968631;28;20106;-84
2022/07/15 01:51:59;;;;;;;5.63;2.13;;;;;;;;;;4966097;28;20053;-84
2022/07/15 01:54:26;;;;;;;5.15;2.17;;;;;;;;;;4967777;28;20040;-85
2022/07/15 01:56:53;;;;;;;5.45;2.08;;;;;;;;;;4966084;28;20030;-84
2022/07/15 01:59:22;;;;;;;4.88;2.30;;;;;;;;;;4967167;28;20039;-84
2022/07/15 02:01:48;;;;;;;7.10;2.28;;;;;;;;;;4970144;28;20818;-84
2022/07/15 02:04:14;;;;;;;3.78;2.30;;;;;;;;;;4981516;28;20674;-83
2022/07/15 02:06:40;;;;;;;5.50;2.15;;;;;;;;;;4985470;28;20564;-85
2022/07/15 02:09:06;;;;;;;6.45;2.28;;;;;;;;;;4974289;28;20077;-86
2022/07/15 02:11:32;;;;;;;3.00;1.73;;;;;;;;;;4973149;28;20041;-84
2022/07/15 02:14:01;;;;;;;6.10;2.50;;;;;;;;;;4967759;28;20042;-84
2022/07/15 02:16:30;;;;;;;5.47;2.03;;;;;;;;;;4969017;28;20597;-84
2022/07/15 02:18:56;;;;;;;6.28;2.50;;;;;;;;;;4968092;28;20528;-84
2022/07/15 02:21:21;;;;;;;4.70;2.20;;;;;;;;;;4971334;28;20054;-84
2022/07/15 02:23:47;;;;;;;3.95;2.20;;;;;;;;;;4969665;28;20314;-84
2022/07/15 02:26:13;;;;;;;5.50;2.42;;;;;;;;;;4983052;28;20035;-83
2022/07/15 02:28:38;;;;;;;3.85;2.13;;;;;;;;;;4969659;28;20035;-84
2022/07/15 02:31:04;;;;;;;3.60;2.33;;;;;;;;;;4968220;28;20118;-84
2022/07/15 02:33:30;;;;;;;4.57;2.10;;;;;;;;;;4971210;28;20035;-84
2022/07/15 02:35:55;;;;;;;5.82;2.47;;;;;;;;;;4964694;28;20433;-84
2022/07/15 02:38:22;;;;;;;4.25;2.47;;;;;;;;;;4968734;28;20042;-84
2022/07/15 02:40:48;;;;;;;4.80;2.22;;;;;;;;;;4968001;28;20043;-84
2022/07/15 02:43:13;;;;;;;6.72;2.33;;;;;;;;;;4966269;28;20045;-84
2022/07/15 02:45:39;;;;;;;4.25;2.08;;;;;;;;;;4966954;28;20027;-84
2022/07/15 02:48:05;;;;;;;5.63;2.60;;;;;;;;;;4967879;28;20023;-84
2022/07/15 02:50:30;;;;;;;4.32;2.33;;;;;;;;;;4969062;28;20030;-85
2022/07/15 02:52:56;;;;;;;4.45;2.53;;;;;;;;;;4966274;28;20035;-84
2022/07/15 02:55:21;;;;;;;3.90;2.35;;;;;;;;;;4958119;28;20046;-84
2022/07/15 02:57:46;;;;;;;6.53;2.90;;;;;;;;;;4953866;28;20027;-84
2022/07/15 03:00:14;;;;;;;4.55;2.83;;;;;;;;;;4952367;28;20031;-84
2022/07/15 03:02:40;;;;;;;5.63;2.38;;;;;;;;;;4953287;28;20028;-84
2022/07/15 03:05:07;;;;;;;5.90;2.65;;;;;;;;;;4964675;28;20038;-84
2022/07/15 03:07:32;;;;;;;7.63;2.47;;;;;;;;;;4969959;28;20770;-84
2022/07/15 03:09:58;;;;;;;8.10;2.40;;;;;;;;;;4968013;28;20035;-84
2022/07/15 03:12:23;;;;;;;5.43;2.42;;;;;;;;;;4968277;28;20490;-85
2022/07/15 03:14:48;;;;;;;6.22;2.15;;;;;;;;;;4970691;28;20039;-85
2022/07/15 03:17:14;;;;;;;4.10;2.50;;;;;;;;;;4967778;28;20042;-84
2022/07/15 03:19:40;;;;;;;5.93;2.50;;;;;;;;;;4969603;28;20038;-84
2022/07/15 03:22:06;;;;;;;4.43;2.30;;;;;;;;;;4968116;28;20043;-84
2022/07/15 03:24:31;;;;;;;3.63;2.25;;;;;;;;;;4970283;28;20034;-85
2022/07/15 03:26:57;;;;;;;8.77;2.38;;;;;;;;;;4968880;28;20526;-85
2022/07/15 03:29:22;;;;;;;7.63;2.22;;;;;;;;;;4974458;28;20031;-85
2022/07/15 03:31:48;;;;;;;7.75;2.17;;;;;;;;;;4969524;28;20077;-85
2022/07/15 03:34:14;;;;;;;5.38;2.13;;;;;;;;;;4968559;28;20050;-85
2022/07/15 03:36:40;;;;;;;5.55;2.10;;;;;;;;;;4968929;28;20390;-86
2022/07/15 03:39:06;;;;;;;5.72;2.13;;;;;;;;;;4968626;28;20015;-84
2022/07/15 03:41:32;;;;;;;2.33;1.77;;;;;;;;;;4969215;28;20058;-84
2022/07/15 03:43:57;;;;;;;4.97;2.50;;;;;;;;;;4969037;28;20418;-85
2022/07/15 03:46:23;;;;;;;6.65;2.40;;;;;;;;;;4964074;28;20070;-85
2022/07/15 03:48:49;;;;;;;5.28;2.50;;;;;;;;;;4969411;28;20066;-84
2022/07/15 03:51:15;;;;;;;6.15;2.40;;;;;;;;;;4971372;28;20023;-85
2022/07/15 03:53:40;;;;;;;4.72;1.98;;;;;;;;;;4973072;28;20166;-86
2022/07/15 03:56:06;;;;;;;2.58;1.92;;;;;;;;;;4979946;28;20449;-84
2022/07/15 03:58:31;;;;;;;6.10;2.55;;;;;;;;;;4969292;28;20518;-84
2022/07/15 04:00:57;;;;;;;5.60;2.08;;;;;;;;;;4970535;28;20023;-85
2022/07/15 04:03:22;;;;;;;4.95;1.98;;;;;;;;;;4969186;28;20018;-85
2022/07/15 04:05:47;;;;;;;3.60;2.05;;;;;;;;;;4969692;28;20034;-86
2022/07/15 04:08:13;;;;;;;3.60;2.03;;;;;;;;;;4968382;28;20106;-85
2022/07/15 04:10:38;;;;;;;2.47;1.80;;;;;;;;;;4969958;28;20118;-86
2022/07/15 04:13:03;;;;;;;3.67;2.25;;;;;;;;;;4968541;28;20566;-85
2022/07/15 04:15:29;;;;;;;3.53;1.83;;;;;;;;;;4965752;28;20692;-85
2022/07/15 04:17:56;;;;;;;3.45;2.22;;;;;;;;;;4968579;28;20466;-85
2022/07/15 04:20:22;;;;;;;3.35;2.20;;;;;;;;;;4967430;28;20046;-85
2022/07/15 04:22:47;;;;;;;5.10;2.47;;;;;;;;;;4984834;28;20616;-85
2022/07/15 04:25:16;;;;;;;5.35;2.20;;;;;;;;;;4968385;28;20035;-85
2022/07/15 04:27:42;;;;;;;4.20;1.73;;;;;;;;;;4964960;28;20502;-85
2022/07/15 04:30:08;;;;;;;4.43;2.03;;;;;;;;;;4973220;28;20039;-85
2022/07/15 04:32:34;;;;;;;5.55;2.33;;;;;;;;;;4965438;28;20050;-86
2022/07/15 04:34:59;;;;;;;3.30;2.08;;;;;;;;;;4958421;28;20093;-85
2022/07/15 04:37:24;;;;;;;7.38;2.30;;;;;;;;;;4959056;28;20127;-85
2022/07/15 04:39:50;;;;;;;6.28;2.20;;;;;;;;;;4966365;28;20741;-86
2022/07/15 04:42:15;;;;;;;5.68;2.13;;;;;;;;;;4967541;28;20489;-85
2022/07/15 04:44:41;;;;;;;4.07;2.10;;;;;;;;;;4966631;28;20046;-84
2022/07/15 04:47:06;;;;;;;4.30;2.63;;;;;;;;;;4968142;28;20113;-84
2022/07/15 04:52:16;;;;;;;6.22;2.22;;;;;;;;;;4967414;28;20070;-84
2022/07/15 04:54:42;;;;;;;4.90;2.63;;;;;;;;;;4964572;28;20029;-84
2022/07/15 04:57:08;;;;;;;6.63;2.72;;;;;;;;;;4983693;28;20030;-83
2022/07/15 04:59:34;;;;;;;6.28;2.60;;;;;;;;;;4981468;28;20043;-84
2022/07/15 05:01:59;;;;;;;5.20;2.45;;;;;;;;;;4992924;28;20050;-83
2022/07/15 05:04:24;;;;;;;7.15;3.20;;;;;;;;;;4970898;28;20126;-84
2022/07/15 05:06:50;;;;;;;10.80;5.07;;;;;;;;;;4962087;28;20461;-83
2022/07/15 05:09:15;;;;;;;5.70;2.58;;;;;;;;;;4969135;28;20031;-83
2022/07/15 05:11:41;;;;;;;8.82;3.47;;;;;;;;;;4966396;28;20039;-84
2022/07/15 05:14:06;;;;;;;6.13;3.08;;;;;;;;;;4968927;28;20642;-84
2022/07/15 05:16:31;;;;;;;5.03;2.60;;;;;;;;;;4955781;28;20039;-83
2022/07/15 05:18:57;;;;;;;5.90;2.67;;;;;;;;;;4965170;28;20488;-83
2022/07/15 05:21:23;;;;;;;4.15;2.53;;;;;;;;;;4968008;28;20129;-84
2022/07/15 05:23:48;;;;;;;5.38;3.03;;;;;;;;;;4966149;28;20034;-83
2022/07/15 05:26:14;;;;;;;4.40;2.30;;;;;;;;;;4967856;28;20051;-83
2022/07/15 05:28:40;;;;;;;3.20;2.03;;;;;;;;;;4971322;28;20034;-84
2022/07/15 05:31:06;;;;;;;5.65;2.72;;;;;;;;;;4980931;28;20100;-83
2022/07/15 05:33:31;;;;;;;4.43;2.63;;;;;;;;;;4968233;28;20030;-84
2022/07/15 05:35:57;;;;;;;6.00;3.40;;;;;;;;;;4973091;28;20066;-83
2022/07/15 05:38:23;;;;;;;5.75;2.70;;;;;;;;;;4964154;28;20510;-84
2022/07/15 05:40:49;;;;;;;8.05;2.88;;;;;;;;;;4965558;28;20066;-84
2022/07/15 05:43:14;;;;;;;6.90;3.30;;;;;;;;;;4983415;28;20042;-83
2022/07/15 05:45:39;;;;;;;7.82;2.45;;;;;;;;;;4966542;28;20074;-83
2022/07/15 05:48:05;;;;;;;6.45;3.08;;;;;;;;;;4968415;28;20033;-84
2022/07/15 05:50:30;;;;;;;6.97;2.92;;;;;;;;;;4958777;28;20039;-84
2022/07/15 05:52:55;;;;;;;9.45;2.70;;;;;;;;;;4965095;28;20602;-84
2022/07/15 05:55:21;;;;;;;7.38;3.17;;;;;;;;;;4979549;28;20055;-85
2022/07/15 05:57:47;;;;;;;9.60;2.92;;;;;;;;;;4958129;28;20031;-85
2022/07/15 06:00:13;;;;;;;8.52;3.40;;;;;;;;;;4962862;28;20119;-86
2022/07/15 06:02:38;;;;;;;9.50;3.53;;;;;;;;;;4965092;28;20410;-86
2022/07/15 06:05:04;;;;;;;9.02;3.25;;;;;;;;;;4975646;28;20069;-88
2022/07/15 06:07:29;;;;;;;9.23;2.95;;;;;;;;;;4968583;28;20712;-86
2022/07/15 06:09:54;;;;;;;10.05;3.25;;;;;;;;;;4965138;28;20049;-84
2022/07/15 06:12:20;;;;;;;6.68;2.83;;;;;;;;;;4968206;28;20106;-86
2022/07/15 06:14:45;;;;;;;8.48;3.22;;;;;;;;;;4967352;28;20039;-86
2022/07/15 06:17:10;;;;;;;8.27;3.45;;;;;;;;;;4964989;28;20047;-87
2022/07/15 06:19:36;;;;;;;5.47;2.88;;;;;;;;;;4966897;28;20043;-87
2022/07/15 06:22:02;;;;;;;7.28;2.88;;;;;;;;;;4967260;28;20073;-88
2022/07/15 06:24:28;;;;;;;8.55;3.42;;;;;;;;;;4983822;28;20035;-88
2022/07/15 06:26:54;;;;;;;7.95;3.53;;;;;;;;;;4977196;28;20418;-87
2022/07/15 06:29:21;;;;;;;6.65;2.83;;;;;;;;;;4967191;28;20081;-88
2022/07/15 06:31:47;;;;;;;5.38;2.90;;;;;;;;;;4969179;28;20062;-89
2022/07/15 06:34:12;;;;;;;6.38;2.55;;;;;;;;;;4963014;28;20078;-89
2022/07/15 06:36:37;;;;;;;5.82;2.65;;;;;;;;;;4967680;28;20081;-90
2022/07/15 06:39:03;;;;;;;10.38;2.40;;;;;;;;;;4972130;28;20073;-90
2022/07/15 06:41:29;;;;;;;4.97;2.40;;;;;;;;;;4961133;28;20045;-91
2022/07/15 06:43:55;;;;;;;5.15;2.25;;;;;;;;;;4980949;28;20081;-91
2022/07/15 06:46:20;;;;;;;7.63;2.05;;;;;;;;;;4966562;28;20062;-90
2022/07/15 06:48:46;;;;;;;4.97;1.80;;;;;;;;;;4985880;28;20490;-91
2022/07/15 06:51:11;;;;;;;3.13;1.63;;;;;;;;;;4989892;28;20411;-91
2022/07/15 06:53:37;;;;;;;5.72;2.00;;;;;;;;;;4972862;28;20039;-91
2022/07/15 06:56:03;;;;;;;5.70;2.05;;;;;;;;;;4972921;28;20038;-92
2022/07/15 06:58:28;;;;;;;5.88;2.13;;;;;;;;;;4969290;28;20039;-90
2022/07/15 07:00:53;;;;;;;3.78;1.80;;;;;;;;;;4983896;28;20037;-90
2022/07/15 07:03:19;;;;;;;6.15;1.85;;;;;;;;;;4970345;28;20022;-86
2022/07/15 07:05:44;;;;;;;4.07;2.17;;;;;;;;;;4970974;28;20038;-90
2022/07/15 07:08:10;;;;;;;9.52;1.83;;;;;;;;;;4969383;28;20916;-88
2022/07/15 07:10:35;;;;;;;9.32;2.17;;;;;;;;;;4970129;28;20418;-89
2022/07/15 07:13:00;;;;;;;4.53;1.65;;;;;;;;;;4970250;28;20046;-90
2022/07/15 07:15:26;;;;;;;3.13;1.60;;;;;;;;;;4968809;28;20119;-91
2022/07/15 07:17:51;;;;;;;2.60;1.60;;;;;;;;;;4969260;28;20106;-89
2022/07/15 07:20:17;;;;;;;6.18;2.05;;;;;;;;;;4967525;28;20185;-92
2022/07/15 07:22:42;;;;;;;5.97;2.47;;;;;;;;;;4969184;28;20035;-91
2022/07/15 07:25:08;;;;;;;4.57;1.67;;;;;;;;;;4963836;28;20047;-89
2022/07/15 07:27:34;;;;;;;3.63;2.20;;;;;;;;;;4978207;28;20029;-89
2022/07/15 07:30:01;;;;;;;8.57;2.13;;;;;;;;;;4979105;28;20050;-91
2022/07/15 07:32:27;;;;;;;4.88;2.05;;;;;;;;;;4960705;28;20043;-90
2022/07/15 07:34:52;;;;;;;8.25;2.70;;;;;;;;;;4969539;28;20070;-92
2022/07/15 07:37:18;;;;;;;6.35;2.50;;;;;;;;;;4968506;28;20047;-91
2022/07/15 07:39:43;;;;;;;3.53;2.00;;;;;;;;;;4970620;28;20062;-90
2022/07/15 07:42:09;;;;;;;5.60;1.92;;;;;;;;;;4972247;28;20461;-91
2022/07/15 07:44:36;;;;;;;4.05;1.55;;;;;;;;;;4969085;28;20042;-91
2022/07/15 07:47:02;;;;;;;3.05;1.58;;;;;;;;;;4972261;28;20042;-89
2022/07/15 07:49:27;;;;;;;3.28;1.52;;;;;;;;;;4973673;28;20122;-89
2022/07/15 07:51:52;;;;;;;4.97;1.85;;;;;;;;;;4971108;28;20031;-91
2022/07/15 07:54:18;;;;;;;2.88;1.48;;;;;;;;;;4972907;28;20047;-89
2022/07/15 07:56:45;;;;;;;3.25;1.67;;;;;;;;;;4971280;28;20721;-88
2022/07/15 07:59:10;;;;;;;5.50;1.80;;;;;;;;;;4984319;28;20046;-88
2022/07/15 08:01:36;;;;;;;4.97;1.83;;;;;;;;;;4968867;28;20027;-88
2022/07/15 08:04:02;;;;;;;6.43;2.42;;;;;;;;;;4974106;28;20046;-89
2022/07/15 08:06:27;;;;;;;2.55;1.73;;;;;;;;;;4962996;28;20110;-88
2022/07/15 08:08:53;;;;;;;6.45;2.25;;;;;;;;;;4963453;28;20161;-89
2022/07/15 08:11:21;;;;;;;3.53;1.73;;;;;;;;;;4961655;28;20106;-89
2022/07/15 08:13:47;;;;;;;4.95;2.03;;;;;;;;;;4957063;28;20027;-87
2022/07/15 08:16:12;;;;;;;4.03;1.80;;;;;;;;;;4963514;28;20117;-89
2022/07/15 08:18:38;;;;;;;4.00;1.85;;;;;;;;;;4967129;28;20031;-89
2022/07/15 08:21:04;;;;;;;3.30;2.08;;;;;;;;;;4976604;28;20042;-90
2022/07/15 08:23:32;;;;;;;2.58;1.45;;;;;;;;;;4969363;28;20524;-89
2022/07/15 08:25:58;;;;;;;4.30;1.60;;;;;;;;;;4969552;28;20045;-89
2022/07/15 08:28:24;;;;;;;4.38;1.30;;;;;;;;;;4968062;28;20030;-88
2022/07/15 08:30:50;;;;;;;2.47;1.50;;;;;;;;;;4976221;28;20038;-88
2022/07/15 08:33:16;;;;;;;3.45;1.75;;;;;;;;;;4973317;28;20051;-90
2022/07/15 08:35:42;;;;;;;3.25;1.70;;;;;;;;;;4973822;28;20097;-89
2022/07/15 08:38:09;;;;;;;2.25;1.42;;;;;;;;;;4966435;28;20077;-90
2022/07/15 08:40:35;;;;;;;2.88;1.60;;;;;;;;;;4964234;28;20062;-89
2022/07/15 08:43:01;;;;;;;2.72;1.50;;;;;;;;;;4986127;28;20047;-88
2022/07/15 08:45:27;;;;;;;3.85;1.40;;;;;;;;;;4969092;28;20379;-87
2022/07/15 08:47:53;;;;;;;2.08;1.10;;;;;;;;;;4971574;28;20015;-87
2022/07/15 08:50:19;;;;;;;1.40;0.95;;;;;;;;;;4971171;28;20045;-87
2022/07/15 08:52:46;;;;;;;2.17;1.45;;;;;;;;;;4968146;28;21021;-89
2022/07/15 08:55:15;;;;;;;2.13;0.93;;;;;;;;;;4972064;28;20513;-90
2022/07/15 08:57:44;;;;;;;2.20;1.00;;;;;;;;;;4967321;28;20061;-88
2022/07/15 09:00:10;;;;;;;1.80;1.20;;;;;;;;;;4959864;28;20097;-88
2022/07/15 09:02:37;;;;;;;1.65;1.00;;;;;;;;;;4961122;28;20054;-89
2022/07/15 09:05:21;;;;;;;2.17;1.13;;;;;;;;;;4976604;28;20034;-89
2022/07/15 09:08:03;;;;;;;1.20;1.10;;;;;;;;;;4992094;28;20034;-89
2022/07/15 09:10:53;;;;;;;3.10;0.95;;;;;;;;;;4958841;28;20050;-87
2022/07/15 09:13:38;;;;;;;1.85;1.10;;;;;;;;;;4955731;28;20779;-89
2022/07/15 09:16:05;;;;;;;3.22;1.10;;;;;;;;;;4957033;28;20402;-88
2022/07/15 09:18:35;;;;;;;2.35;1.20;;;;;;;;;;4969571;28;20035;-87
2022/07/15 09:21:01;;;;;;;2.58;1.08;;;;;;;;;;4971491;28;20047;-87
2022/07/15 09:23:33;;;;;;;2.78;1.40;;;;;;;;;;4970198;28;20920;-87
2022/07/15 09:26:20;;;;;;;2.33;1.10;;;;;;;;;;4982886;28;20045;-82
2022/07/15 09:28:45;;;;;;;5.80;1.20;;;;;;;;;;4968815;28;20046;-83
2022/07/15 09:34:01;;;;;;;3.53;2.10;;;;;;;;;;4961487;28;20544;-83
2022/07/15 09:36:29;;;;;;;2.45;1.23;;;;;;;;;;4965113;28;20433;-82
2022/07/15 09:39:03;;;;;;;2.40;1.10;;;;;;;;;;4962788;28;20529;-83
2022/07/15 09:41:31;;;;;;;2.58;1.25;;;;;;;;;;4966040;28;20110;-81
2022/07/15 09:44:10;;;;;;;3.00;1.30;;;;;;;;;;4967203;28;20034;-83
2022/07/15 09:46:41;;;;;;;3.25;1.35;;;;;;;;;;4964796;28;20043;-87
2022/07/15 09:49:07;;;;;;;1.85;1.20;;;;;;;;;;4968144;28;20047;-88
2022/07/15 09:51:53;;;;;;;3.17;1.20;;;;;;;;;;4970044;28;20027;-89
2022/07/15 09:54:19;;;;;;;2.22;1.08;;;;;;;;;;4970752;28;20663;-89
2022/07/15 09:56:45;;;;;;;2.30;1.10;;;;;;;;;;4969905;28;20022;-87
2022/07/15 09:59:11;;;;;;;3.17;1.25;;;;;;;;;;4970129;28;20620;-89
2022/07/15 10:01:37;;;;;;;1.10;1.00;;;;;;;;;;4965161;28;20027;-87
2022/07/15 10:04:04;;;;;;;3.58;1.10;;;;;;;;;;4964712;28;20073;-88
2022/07/15 10:06:32;;;;;;;3.45;1.00;;;;;;;;;;4967723;28;20498;-86
2022/07/15 10:08:57;;;;;;;2.63;1.27;;;;;;;;;;4970068;28;20026;-88
2022/07/15 10:11:23;;;;;;;5.55;1.30;;;;;;;;;;4969487;28;20035;-88
2022/07/15 10:14:13;;;;;;;1.98;1.08;;;;;;;;;;4985210;28;20590;-87
2022/07/15 10:16:57;;;;;;;2.47;1.15;;;;;;;;;;4980967;28;20514;-89
2022/07/15 10:19:44;;;;;;;1.55;1.00;;;;;;;;;;4966969;28;20142;-89
2022/07/15 10:22:12;;;;;;;5.43;1.20;;;;;;;;;;4969634;28;20043;-89
2022/07/15 10:24:47;;;;;;;2.00;1.05;;;;;;;;;;4973915;28;20035;-89
2022/07/15 10:27:26;;;;;;;1.50;1.05;;;;;;;;;;4971521;28;20118;-85
2022/07/15 10:29:52;;;;;;;1.20;1.00;;;;;;;;;;4973096;28;20046;-88
2022/07/15 10:32:17;;;;;;;5.63;1.17;;;;;;;;;;4973657;28;20094;-90
2022/07/15 10:34:43;;;;;;;2.88;1.10;;;;;;;;;;4973698;28;20065;-89
2022/07/15 10:37:11;;;;;;;1.70;1.10;;;;;;;;;;4972493;28;20043;-88
2022/07/15 10:40:03;;;;;;;2.25;1.25;;;;;;;;;;4973046;28;20410;-89
2022/07/15 10:43:01;;;;;;;4.43;1.15;;;;;;;;;;4971331;28;20084;-87
2022/07/15 10:45:26;;;;;;;1.17;1.08;;;;;;;;;;4970828;28;20114;-86
2022/07/15 10:48:25;;;;;;;2.60;1.45;;;;;;;;;;4972811;28;20086;-87
2022/07/15 10:50:51;;;;;;;3.13;1.50;;;;;;;;;;4987558;28;20139;-86
2022/07/15 10:53:20;;;;;;;3.08;1.30;;;;;;;;;;4971017;28;20613;-86
2022/07/15 10:55:46;;;;;;;3.08;1.35;;;;;;;;;;4972592;28;20085;-86
2022/07/15 10:58:13;;;;;;;2.28;1.42;;;;;;;;;;4967608;28;20035;-88
2022/07/15 11:00:38;;;;;;;3.85;1.40;;;;;;;;;;4970123;28;20059;-92
2022/07/15 11:03:18;;;;;;;1.70;1.30;;;;;;;;;;4975344;28;20046;-87
2022/07/15 11:05:52;;;;;;;5.47;1.40;;;;;;;;;;4961972;28;20045;-87
2022/07/15 11:08:33;;;;;;;1.42;1.10;;;;;;;;;;4972461;28;20219;-87
2022/07/15 11:11:14;;;;;;;3.08;1.60;;;;;;;;;;4971207;28;20035;-86
2022/07/15 11:13:45;;;;;;;1.63;1.30;;;;;;;;;;4969622;28;20070;-87
2022/07/15 11:16:20;;;;;;;3.92;1.45;;;;;;;;;;4967143;28;20034;-86
2022/07/15 11:18:53;;;;;;;2.88;1.60;;;;;;;;;;4970626;28;20182;-89
2022/07/15 11:21:20;;;;;;;;;;;;;;;;;;4962315;28;20053;-89
2022/07/15 11:23:47;;;;;;;3.42;1.50;;;;;;;;;;4970890;28;19918;-86
2022/07/15 11:26:13;;;;;;;7.82;1.30;;;;;;;;;;4974176;28;20039;-87
2022/07/15 11:28:54;;;;;;;2.00;1.30;;;;;;;;;;4978090;28;20037;-87
2022/07/15 11:31:20;;;;;;;4.75;2.78;;;;;;;;;;4966709;28;20038;-89
2022/07/15 11:33:46;;;;;;;1.58;1.10;;;;;;;;;;4970562;28;20050;-88
2022/07/15 11:36:20;;;;;;;2.05;1.38;;;;;;;;;;4975411;28;20058;-91
2022/07/15 11:38:45;;;;;;;1.50;1.23;;;;;;;;;;4975554;28;20536;-89
2022/07/15 11:46:48;;;;;;;2.95;1.42;;;;;;;;;;4975011;28;20093;-89
2022/07/15 11:49:31;;;;;;;2.00;1.50;;;;;;;;;;4972707;28;20522;-86
2022/07/15 11:51:57;;;;;;;1.90;1.43;;;;;;;;;;4969176;28;20030;-86
2022/07/15 11:54:25;;;;;;;3.00;1.50;;;;;;;;;;4975704;28;20713;-87
2022/07/15 11:56:58;;;;;;;3.60;1.75;;;;;;;;;;4971092;28;20027;-88
2022/07/15 11:59:24;;;;;;;1.70;1.42;;;;;;;;;;4978371;28;20129;-91
2022/07/15 12:02:10;;;;;;;2.47;1.55;;;;;;;;;;4992382;28;20130;-87
2022/07/15 12:04:37;;;;;;;2.10;1.40;;;;;;;;;;4992343;28;20078;-90
2022/07/15 12:07:03;;;;;;;2.97;1.60;;;;;;;;;;4992566;28;20042;-91
2022/07/15 12:09:58;;;;;;;2.60;1.63;;;;;;;;;;4979418;28;20093;-91
2022/07/15 12:12:23;;;;;;;2.95;1.50;;;;;;;;;;4955289;28;20591;-89
2022/07/15 12:14:50;;;;;;;1.83;1.33;;;;;;;;;;4969535;28;20022;-87
2022/07/15 12:17:16;;;;;;;2.63;1.60;;;;;;;;;;4967805;28;20034;-88
2022/07/15 12:19:47;;;;;;;4.50;1.90;;;;;;;;;;4966658;28;20441;-88
2022/07/15 12:22:13;;;;;;;2.42;1.38;;;;;;;;;;4966073;28;20055;-88
2022/07/15 12:24:51;;;;;;;2.15;1.83;;;;;;;;;;4968410;28;20421;-86
2022/07/15 12:27:31;;;;;;;6.20;2.20;;;;;;;;;;4968696;28;20500;-88
2022/07/15 12:30:06;;;;;;;2.70;1.50;;;;;;;;;;4967588;28;20427;-87
2022/07/15 12:32:33;;;;;;;1.92;1.60;;;;;;;;;;4975394;28;20047;-87
2022/07/15 12:35:03;;;;;;;6.40;1.67;;;;;;;;;;4980137;28;20058;-86
2022/07/15 12:37:33;;;;;;;2.65;1.50;;;;;;;;;;4964991;28;20561;-86
2022/07/15 12:40:09;;;;;;;2.50;1.50;;;;;;;;;;4970432;28;20043;-87
2022/07/15 12:42:47;;;;;;;6.32;1.52;;;;;;;;;;4967174;28;20082;-86
2022/07/15 12:45:23;;;;;;;2.83;1.45;;;;;;;;;;4964831;28;20065;-87
2022/07/15 12:48:04;;;;;;;2.58;1.75;;;;;;;;;;4963752;28;20050;-87
2022/07/15 12:50:57;;;;;;;2.90;1.73;;;;;;;;;;4983021;28;20043;-87
2022/07/15 12:53:29;;;;;;;1.67;1.45;;;;;;;;;;4964953;28;20050;-89
2022/07/15 12:56:01;;;;;;;3.25;1.60;;;;;;;;;;4979956;28;20594;-90
2022/07/15 12:58:33;;;;;;;3.10;1.67;;;;;;;;;;4965261;28;20039;-89
2022/07/15 13:01:11;;;;;;;1.80;1.50;;;;;;;;;;4978708;28;20031;-92
2022/07/15 13:03:41;;;;;;;2.47;1.50;;;;;;;;;;4966357;28;20039;-89
2022/07/15 13:06:11;;;;;;;2.13;1.30;;;;;;;;;;4970363;28;20097;-89
2022/07/15 13:08:40;;;;;;;1.63;1.40;;;;;;;;;;4971183;28;20110;-89
2022/07/15 13:11:09;;;;;;;3.10;1.38;;;;;;;;;;4981891;28;20102;-86
2022/07/15 13:13:39;;;;;;;3.35;1.60;;;;;;;;;;4982810;28;20059;-88
2022/07/15 13:16:06;;;;;;;3.17;1.52;;;;;;;;;;4968501;28;20054;-87
2022/07/15 13:18:34;;;;;;;3.65;1.45;;;;;;;;;;4963550;28;20049;-87
2022/07/15 13:21:00;;;;;;;2.65;1.40;;;;;;;;;;4959449;28;21029;-89
2022/07/15 13:23:28;;;;;;;1.83;1.30;;;;;;;;;;4983686;28;20034;-88
2022/07/15 13:25:56;;;;;;;2.25;1.20;;;;;;;;;;4966286;28;20034;-88
2022/07/15 13:28:24;;;;;;;1.75;1.30;;;;;;;;;;4971103;28;20038;-91
2022/07/15 13:30:53;;;;;;;1.60;1.35;;;;;;;;;;4975585;28;20042;-88
2022/07/15 13:33:21;;;;;;;2.95;1.30;;;;;;;;;;4970188;28;20027;-88
2022/07/15 13:35:48;;;;;;;2.60;1.25;;;;;;;;;;4969890;28;20047;-88
2022/07/15 13:38:16;;;;;;;3.20;1.30;;;;;;;;;;4969576;28;20043;-89
2022/07/15 13:40:43;;;;;;;2.13;1.38;;;;;;;;;;4969795;28;20043;-89
2022/07/15 13:43:11;;;;;;;2.97;1.30;;;;;;;;;;4951704;28;20069;-89
2022/07/15 13:45:39;;;;;;;1.20;1.10;;;;;;;;;;4968587;28;20049;-88
2022/07/15 13:48:06;;;;;;;2.35;1.17;;;;;;;;;;4972266;28;20037;-90
2022/07/15 13:53:23;;;;;;;2.17;1.10;;;;;;;;;;4955078;28;20174;-90
2022/07/15 13:55:49;;;;;;;1.48;1.00;;;;;;;;;;4959544;28;20086;-89
2022/07/15 13:58:25;;;;;;;1.88;1.20;;;;;;;;;;4989930;28;20058;-90
2022/07/15 14:00:52;;;;;;;1.85;1.42;;;;;;;;;;4972502;28;20047;-94
2022/07/15 14:03:20;;;;;;;4.82;1.33;;;;;;;;;;4979091;28;20109;-88
2022/07/15 14:05:51;;;;;;;2.70;1.33;;;;;;;;;;4985727;28;20485;-88
2022/07/15 14:08:18;;;;;;;2.63;1.30;;;;;;;;;;4975922;28;20046;-89
2022/07/15 14:10:46;;;;;;;2.10;1.17;;;;;;;;;;4984616;28;20038;-88
2022/07/15 14:13:13;;;;;;;1.10;1.00;;;;;;;;;;4980232;28;20061;-88
2022/07/15 14:15:41;;;;;;;2.63;1.20;;;;;;;;;;4983558;28;20042;-89
2022/07/15 14:18:09;;;;;;;1.40;1.25;;;;;;;;;;4981216;28;20045;-89
2022/07/15 14:20:37;;;;;;;3.55;1.45;;;;;;;;;;4979445;28;20037;-89
2022/07/15 14:23:04;;;;;;;3.75;1.52;;;;;;;;;;4975030;28;20570;-91
2022/07/15 14:25:31;;;;;;;1.90;1.15;;;;;;;;;;4977632;28;20081;-91
2022/07/15 14:27:59;;;;;;;4.65;1.20;;;;;;;;;;4971649;28;20054;-88
2022/07/15 14:30:29;;;;;;;1.70;1.20;;;;;;;;;;4975793;28;20621;-90
2022/07/15 14:33:03;;;;;;;3.05;1.30;;;;;;;;;;4963306;28;20513;-88
2022/07/15 14:35:31;;;;;;;2.28;1.50;;;;;;;;;;4973651;28;20038;-89
2022/07/15 14:37:58;;;;;;;1.20;1.10;;;;;;;;;;4969596;28;20106;-89
2022/07/15 14:40:29;;;;;;;2.45;1.40;;;;;;;;;;4981848;28;20112;-90
2022/07/15 14:42:56;;;;;;;2.05;1.13;;;;;;;;;;4965071;28;20050;-89
2022/07/15 14:45:23;;;;;;;1.85;1.55;;;;;;;;;;4973769;28;20066;-92
2022/07/15 14:47:51;;;;;;;2.05;1.45;;;;;;;;;;4992207;28;20022;-90
2022/07/15 14:50:19;;;;;;;2.30;1.40;;;;;;;;;;4976492;28;20051;-89
2022/07/15 14:52:46;;;;;;;2.22;1.30;;;;;;;;;;4982574;28;20621;-86
2022/07/15 14:55:14;;;;;;;1.73;1.35;;;;;;;;;;4964153;28;20133;-88
2022/07/15 14:57:42;;;;;;;3.70;1.45;;;;;;;;;;4969171;28;20039;-88
2022/07/15 15:00:10;;;;;;;4.00;1.42;;;;;;;;;;4966889;28;20510;-87
2022/07/15 15:02:36;;;;;;;4.72;1.60;;;;;;;;;;4960448;28;20038;-89
2022/07/15 15:05:26;;;;;;;2.83;1.70;;;;;;;;;;4970961;28;20096;-88